Airfield :
LOGIN :

Register | Disclaimer

   EN    FR    IT 

 










Legend :    VFR   Marginal VFR   IFR   Intensive IFR   Very Intensive IFR
Visi :
Ceiling :
>= 8 km
>= 3000ft
5 to 8 km
1000 to 3000 ft
1500m to 5 km
500 to 1000 ft
800 to 1500m
200 to 500 ft
< 800m
< 200 ft
Symbols :   Thunderstorms  Fog  Heavy snow  Heavy precipitations  Wind > 20 kt
SIGMETs :     Misc.  Thunderstorms  Icing  Turbulence  Mountain Waves  Volcanic Ashes






- Airport Elevation : 129 ft
- IATA code : ZCN


ETHC - Celle

CURRENT METAR :
  • 121320Z 21006KT 9999 -DZ FEW018 BKN040 05/03 Q0999 BLU BLU TEMPO WHT

EXPIRED METARs :
  • 121220Z 19006KT 9999 FEW018 SCT021 BKN046 05/03 Q1000 BLU BLU TEMPO WHT
  • 121120Z 19006KT 9999 FEW018 BKN042 05/03 Q1000 BLU BLU TEMPO WHT

TAF TAF ETHC
Valid from the 12 at 12:00 until the 12 at 21:00 UTC


121115Z 1212/1221 19006KT 9999 NSW SCT020 BKN040
TEMPO 1212/1215 16004KT 8000 -RA FEW008 BKN015



MET'MAP, your aeronautical weather chart ! - Copyright ORBIFLY December 2007 - Disclaimer

ORBIFLY MET'MAP TEAM :

Programming & Development : Alexandra Zaïnal
Concept & original design : Baudouin d'Aumeries
Assistance for programming : Marc-Olivier Méhu
Technical & hardware support : Manuel Goepfert

Contact : metmap@orbifly.com




SOURCES & CREDITS :

   NOAA